createdAt,value
2017-09-08T00:01:35.349Z,11.97
2017-09-08T00:04:02.334Z,16.43
2017-09-08T00:06:28.324Z,18.83
2017-09-08T00:08:54.661Z,16.40
2017-09-08T00:11:20.712Z,14.93
2017-09-08T00:13:46.730Z,18.30
2017-09-08T00:16:13.347Z,20.83
2017-09-08T00:18:41.031Z,14.40
2017-09-08T00:21:07.260Z,15.60
2017-09-08T00:23:34.236Z,11.00
2017-09-08T00:26:00.224Z,15.47
2017-09-08T00:28:26.276Z,18.33
2017-09-08T00:30:52.251Z,16.10
2017-09-08T00:33:18.303Z,14.60
2017-09-08T00:35:44.887Z,21.13
2017-09-08T00:38:11.123Z,19.07
2017-09-08T00:40:38.206Z,24.80
2017-09-08T00:43:04.284Z,11.17
2017-09-08T00:45:30.540Z,15.97
2017-09-08T00:47:56.868Z,15.03
2017-09-08T00:50:23.296Z,15.47
2017-09-08T00:52:49.315Z,15.27
2017-09-08T00:55:15.393Z,21.17
2017-09-08T00:57:41.444Z,14.50
2017-09-08T01:00:08.125Z,15.37
2017-09-08T01:02:35.343Z,17.23
2017-09-08T01:05:02.224Z,17.90
2017-09-08T01:07:28.222Z,14.90
2017-09-08T01:09:54.259Z,16.40
2017-09-08T01:12:20.284Z,18.53
2017-09-08T01:14:46.272Z,15.17
2017-09-08T01:17:12.316Z,21.47
2017-09-08T01:19:38.305Z,12.90
2017-09-08T01:22:04.609Z,15.17
2017-09-08T01:24:30.612Z,12.93
2017-09-08T01:26:56.568Z,19.40
2017-09-08T01:29:23.801Z,15.40
2017-09-08T01:31:49.984Z,20.70
2017-09-08T01:34:15.976Z,15.37
2017-09-08T01:36:42.755Z,18.40
2017-09-08T01:39:08.740Z,16.20
2017-09-08T01:41:36.087Z,15.37
2017-09-08T01:44:02.046Z,16.70
2017-09-08T01:46:28.324Z,14.10
2017-09-08T01:48:54.418Z,17.07
2017-09-08T01:51:20.454Z,14.70
2017-09-08T01:53:46.456Z,16.83
2017-09-08T01:56:12.694Z,16.63
2017-09-08T01:58:38.666Z,14.97
2017-09-08T02:01:04.648Z,13.83
2017-09-08T02:03:30.678Z,19.20
2017-09-08T02:05:56.741Z,17.60
2017-09-08T02:08:22.720Z,15.07
2017-09-08T02:10:48.651Z,16.27
2017-09-08T02:13:14.701Z,17.47
2017-09-08T02:15:40.900Z,21.17
2017-09-08T02:18:06.915Z,18.93
2017-09-08T02:20:32.944Z,20.43
2017-09-08T02:22:58.890Z,14.70
2017-09-08T02:25:24.909Z,18.10
2017-09-08T02:27:50.888Z,13.97
2017-09-08T02:30:16.904Z,15.20
2017-09-08T02:32:42.871Z,17.70
2017-09-08T02:35:09.010Z,17.83
2017-09-08T02:37:35.011Z,12.90
2017-09-08T02:40:01.026Z,13.93
2017-09-08T02:42:27.077Z,16.70
2017-09-08T02:44:53.765Z,14.70
2017-09-08T02:47:19.724Z,16.60
2017-09-08T02:49:45.698Z,15.27
2017-09-08T02:52:11.668Z,14.60
2017-09-08T02:54:37.687Z,14.90
2017-09-08T02:57:03.730Z,18.20
2017-09-08T02:59:30.032Z,13.60
2017-09-08T03:01:56.101Z,18.33
2017-09-08T03:04:22.091Z,20.53
2017-09-08T03:06:48.129Z,17.47
2017-09-08T03:09:14.257Z,15.27
2017-09-08T03:11:40.269Z,21.37
2017-09-08T03:14:06.318Z,15.10
2017-09-08T03:16:32.319Z,22.43
2017-09-08T03:18:58.547Z,15.83
2017-09-08T03:21:24.570Z,12.07
2017-09-08T03:23:50.589Z,14.40
2017-09-08T03:26:16.807Z,12.10
2017-09-08T03:28:43.076Z,18.33
2017-09-08T03:31:09.099Z,17.67
2017-09-08T03:33:35.077Z,17.87
2017-09-08T03:36:01.203Z,15.20
2017-09-08T03:38:27.237Z,12.00
2017-09-08T03:40:53.215Z,17.43
2017-09-08T03:43:19.217Z,18.43
2017-09-08T03:45:46.150Z,18.53
2017-09-08T03:48:12.278Z,17.57
2017-09-08T03:50:38.274Z,17.80
2017-09-08T03:53:04.328Z,24.70
2017-09-08T03:55:30.505Z,17.03
2017-09-08T03:57:56.528Z,14.60
2017-09-08T04:00:23.223Z,17.30
2017-09-08T04:02:49.998Z,15.87
2017-09-08T04:05:16.128Z,13.37
2017-09-08T04:07:42.772Z,15.00
2017-09-08T04:10:08.709Z,15.80
2017-09-08T04:12:35.481Z,15.10
2017-09-08T04:15:01.548Z,16.77
2017-09-08T04:17:27.791Z,11.37
2017-09-08T04:19:54.597Z,17.73
2017-09-08T04:22:20.655Z,14.00
2017-09-08T04:24:47.840Z,16.40
2017-09-08T04:27:13.831Z,11.30
2017-09-08T04:29:39.831Z,18.13
2017-09-08T04:32:06.036Z,16.73
2017-09-08T04:34:32.011Z,15.90
2017-09-08T04:36:59.235Z,17.13
2017-09-08T04:39:26.113Z,24.77
2017-09-08T04:41:52.762Z,15.67
2017-09-08T04:44:20.196Z,20.10
2017-09-08T04:46:46.571Z,16.23
2017-09-08T04:49:12.544Z,26.10
2017-09-08T04:51:39.029Z,16.87
2017-09-08T04:54:06.030Z,18.43
2017-09-08T04:56:32.061Z,16.80
2017-09-08T04:58:59.083Z,11.33
2017-09-08T05:01:25.433Z,12.63
2017-09-08T05:03:51.406Z,14.17
2017-09-08T05:06:17.855Z,12.37
2017-09-08T05:08:44.313Z,12.97
2017-09-08T05:11:11.791Z,14.17
2017-09-08T05:13:38.588Z,15.60
2017-09-08T05:16:05.738Z,14.80
2017-09-08T05:18:31.782Z,15.90
2017-09-08T05:20:57.783Z,12.53
2017-09-08T05:23:23.761Z,16.90
2017-09-08T05:25:49.718Z,11.33
2017-09-08T05:28:15.705Z,14.30
2017-09-08T05:30:41.880Z,19.60
2017-09-08T05:33:09.503Z,13.40
2017-09-08T05:35:35.587Z,12.23
2017-09-08T05:38:01.576Z,21.23
2017-09-08T05:40:27.818Z,10.90
2017-09-08T05:42:53.857Z,18.20
2017-09-08T05:45:20.581Z,17.33
2017-09-08T05:47:46.780Z,16.37
2017-09-08T05:50:12.917Z,14.03
2017-09-08T05:52:38.961Z,10.70
2017-09-08T05:55:05.995Z,19.07
2017-09-08T05:57:32.076Z,13.40
2017-09-08T05:59:58.151Z,21.33
2017-09-08T06:02:24.363Z,22.33
2017-09-08T06:04:51.842Z,16.90
2017-09-08T06:07:18.707Z,15.90
2017-09-08T06:09:46.772Z,14.20
2017-09-08T06:12:12.748Z,13.03
2017-09-08T06:14:39.008Z,15.40
2017-09-08T06:17:05.028Z,13.67
2017-09-08T06:19:35.867Z,12.13
2017-09-08T06:22:01.866Z,12.00
2017-09-08T06:24:28.816Z,13.10
2017-09-08T06:26:54.987Z,13.93
2017-09-08T06:29:21.896Z,15.90
2017-09-08T06:31:47.900Z,13.07
2017-09-08T06:34:14.140Z,13.30
2017-09-08T06:36:40.159Z,12.30
2017-09-08T06:39:06.334Z,13.53
2017-09-08T06:41:35.026Z,13.80
2017-09-08T06:44:02.017Z,11.23
2017-09-08T06:46:28.063Z,17.03
2017-09-08T06:48:54.067Z,18.63
2017-09-08T06:51:21.828Z,17.20
2017-09-08T06:53:49.062Z,22.33
2017-09-08T06:56:15.059Z,11.87
2017-09-08T06:58:41.120Z,14.97
2017-09-08T07:01:07.260Z,10.33
2017-09-08T07:03:33.561Z,11.90
2017-09-08T07:05:59.655Z,16.77
2017-09-08T07:08:25.725Z,12.67
2017-09-08T07:10:51.718Z,11.63
2017-09-08T07:13:18.847Z,12.63
2017-09-08T07:15:46.142Z,14.80
2017-09-08T07:18:12.159Z,17.87
2017-09-08T07:20:38.820Z,6.97
2017-09-08T07:23:04.864Z,9.43
2017-09-08T07:25:30.938Z,16.93
2017-09-08T07:27:57.086Z,16.17
2017-09-08T07:30:23.055Z,13.60
2017-09-08T07:32:50.018Z,11.53
2017-09-08T07:35:17.133Z,13.43
2017-09-08T07:37:43.103Z,12.70
2017-09-08T07:40:09.129Z,11.83
2017-09-08T07:42:35.866Z,11.43
2017-09-08T07:45:01.982Z,14.20
2017-09-08T07:47:28.399Z,13.83
2017-09-08T07:49:54.421Z,13.53
2017-09-08T07:52:20.482Z,11.37
2017-09-08T07:54:46.527Z,11.27
2017-09-08T07:57:12.796Z,16.80
2017-09-08T07:59:39.782Z,10.57
2017-09-08T08:02:05.903Z,13.23
2017-09-08T08:04:33.772Z,11.47
2017-09-08T08:07:00.485Z,10.20
2017-09-08T08:09:26.491Z,10.13
2017-09-08T08:11:52.522Z,14.03
2017-09-08T08:14:18.544Z,10.10
2017-09-08T08:16:44.645Z,12.37
2017-09-08T08:19:10.902Z,17.03
2017-09-08T08:21:37.400Z,7.97
2017-09-08T08:24:03.415Z,9.03
2017-09-08T08:26:29.435Z,15.20
2017-09-08T08:28:55.445Z,9.97
2017-09-08T08:31:21.508Z,15.40
2017-09-08T08:33:48.205Z,14.10
2017-09-08T08:36:16.084Z,11.23
2017-09-08T08:38:42.145Z,11.80
2017-09-08T08:41:09.024Z,11.43
2017-09-08T08:43:35.079Z,9.83
2017-09-08T08:46:01.123Z,12.93
2017-09-08T08:48:27.098Z,13.93
2017-09-08T08:50:53.077Z,9.87
2017-09-08T08:53:19.057Z,12.43
2017-09-08T08:55:45.061Z,12.50
2017-09-08T08:58:11.116Z,10.87
2017-09-08T09:00:37.245Z,16.43
2017-09-08T09:03:04.949Z,8.40
2017-09-08T09:05:31.280Z,10.50
2017-09-08T09:07:57.316Z,15.20
2017-09-08T09:10:24.220Z,17.40
2017-09-08T09:12:50.295Z,13.17
2017-09-08T09:15:17.766Z,13.80
2017-09-08T09:17:43.745Z,14.97
2017-09-08T09:20:09.735Z,10.17
2017-09-08T09:22:35.717Z,13.43
2017-09-08T09:25:01.923Z,7.20
2017-09-08T09:27:28.981Z,16.70
2017-09-08T09:29:55.006Z,15.20
2017-09-08T09:32:22.128Z,12.23
2017-09-08T09:34:50.157Z,11.00
2017-09-08T09:37:17.196Z,12.43
2017-09-08T09:39:43.435Z,10.33
2017-09-08T09:42:12.772Z,13.43
2017-09-08T09:44:39.774Z,9.53
2017-09-08T09:47:05.760Z,12.40
2017-09-08T09:49:31.893Z,10.53
2017-09-08T09:51:57.998Z,12.47
2017-09-08T09:54:24.119Z,14.30
2017-09-08T09:56:50.136Z,10.87
2017-09-08T09:59:16.938Z,10.17
2017-09-08T10:01:42.927Z,12.30
2017-09-08T10:04:08.886Z,10.63
2017-09-08T10:06:35.745Z,15.70
2017-09-08T10:09:01.904Z,15.73
2017-09-08T10:11:27.916Z,12.83
2017-09-08T10:13:53.998Z,11.97
2017-09-08T10:16:20.076Z,6.20
2017-09-08T10:18:46.633Z,10.60
2017-09-08T10:21:12.635Z,9.30
2017-09-08T10:23:38.711Z,12.00
2017-09-08T10:26:05.441Z,13.70
2017-09-08T10:28:31.431Z,13.40
2017-09-08T10:30:57.661Z,16.40
2017-09-08T10:33:23.681Z,15.53
2017-09-08T10:35:49.862Z,11.00
2017-09-08T10:38:16.723Z,16.80
2017-09-08T10:40:43.914Z,8.63
2017-09-08T10:43:09.907Z,11.33
2017-09-08T10:45:35.958Z,12.67
2017-09-08T10:48:02.857Z,11.93
2017-09-08T10:50:28.958Z,10.97
2017-09-08T10:52:54.983Z,16.13
2017-09-08T10:55:21.360Z,12.70
2017-09-08T10:57:47.613Z,11.00
2017-09-08T11:00:13.622Z,13.87
2017-09-08T11:02:39.678Z,13.10
2017-09-08T11:05:05.958Z,12.73
2017-09-08T11:07:32.202Z,11.60
2017-09-08T11:09:58.263Z,10.43
2017-09-08T11:12:25.110Z,10.40
2017-09-08T11:14:51.195Z,10.73
2017-09-08T11:17:17.325Z,15.37
2017-09-08T11:19:43.849Z,13.93
2017-09-08T11:22:10.564Z,11.27
2017-09-08T11:24:36.681Z,11.33
2017-09-08T11:27:02.647Z,9.53
2017-09-08T11:29:28.666Z,9.50
2017-09-08T11:31:54.655Z,12.17
2017-09-08T11:34:26.752Z,16.43
2017-09-08T11:36:58.838Z,10.10
2017-09-08T11:39:24.853Z,16.63
2017-09-08T11:41:50.897Z,12.27
2017-09-08T11:44:18.643Z,15.17
2017-09-08T11:46:44.644Z,16.50
2017-09-08T11:49:10.653Z,11.03
2017-09-08T11:51:36.901Z,13.20
2017-09-08T11:54:02.896Z,12.90
2017-09-08T11:56:29.337Z,15.20
2017-09-08T11:58:55.639Z,9.60
2017-09-08T12:01:22.687Z,11.57
2017-09-08T12:03:48.705Z,12.93
2017-09-08T12:06:14.928Z,13.30
2017-09-08T12:08:41.319Z,9.53
2017-09-08T12:11:07.552Z,13.60
2017-09-08T12:13:33.568Z,14.63
2017-09-08T12:15:59.962Z,12.93
2017-09-08T12:18:25.977Z,17.37
2017-09-08T12:20:52.657Z,13.23
2017-09-08T12:23:19.048Z,10.83
2017-09-08T12:25:45.083Z,9.67
2017-09-08T12:28:12.053Z,9.37
2017-09-08T12:30:39.887Z,11.73
2017-09-08T12:33:05.902Z,13.20
2017-09-08T12:35:31.890Z,9.93
2017-09-08T12:37:58.338Z,9.03
2017-09-08T12:40:24.561Z,10.17
2017-09-08T12:42:50.553Z,10.00
2017-09-08T12:45:16.773Z,9.60
2017-09-08T12:47:42.748Z,10.07
2017-09-08T12:50:08.776Z,13.13
2017-09-08T12:52:34.717Z,13.50
2017-09-08T12:55:01.729Z,13.13
2017-09-08T12:57:27.815Z,11.90
2017-09-08T12:59:53.786Z,8.23
2017-09-08T13:02:19.784Z,9.53
2017-09-08T13:04:45.722Z,7.43
2017-09-08T13:07:12.677Z,13.20
2017-09-08T13:09:38.711Z,10.20
2017-09-08T13:12:04.753Z,8.13
2017-09-08T13:14:30.839Z,10.47
2017-09-08T13:16:56.810Z,9.13
2017-09-08T13:19:22.796Z,6.07
2017-09-08T13:21:49.818Z,15.00
2017-09-08T13:24:15.905Z,10.10
2017-09-08T13:26:43.065Z,12.83
2017-09-08T13:29:09.124Z,9.10
2017-09-08T13:31:35.077Z,11.27
2017-09-08T13:34:01.254Z,11.00
2017-09-08T13:36:27.513Z,10.53
2017-09-08T13:38:53.672Z,9.03
2017-09-08T13:41:21.773Z,11.27
2017-09-08T13:43:48.714Z,6.70
2017-09-08T13:46:14.727Z,6.60
2017-09-08T13:48:40.745Z,7.60
2017-09-08T13:51:07.577Z,9.10
2017-09-08T13:53:33.561Z,7.27
2017-09-08T13:55:59.628Z,8.83
2017-09-08T13:58:25.871Z,5.17
2017-09-08T14:00:51.984Z,5.93
2017-09-08T14:03:18.033Z,8.30
2017-09-08T14:05:44.671Z,7.80
2017-09-08T14:08:10.665Z,4.40
2017-09-08T14:10:37.590Z,12.53
2017-09-08T14:13:03.496Z,6.33
2017-09-08T14:15:29.499Z,5.70
2017-09-08T14:17:55.541Z,5.70
2017-09-08T14:20:21.691Z,5.60
2017-09-08T14:22:47.894Z,4.73
2017-09-08T14:25:13.888Z,6.00
2017-09-08T14:27:39.914Z,8.13
2017-09-08T14:30:05.955Z,6.20
2017-09-08T14:32:31.928Z,3.73
2017-09-08T14:34:58.145Z,5.73
2017-09-08T14:37:24.151Z,5.13
2017-09-08T14:39:50.123Z,4.03
2017-09-08T14:42:16.300Z,7.40
2017-09-08T14:44:42.285Z,5.10
2017-09-08T14:47:08.445Z,5.30
2017-09-08T14:49:35.266Z,5.70
2017-09-08T14:52:01.398Z,4.30
2017-09-08T14:54:27.406Z,7.20
2017-09-08T14:56:54.323Z,5.43
2017-09-08T14:59:20.344Z,4.00
2017-09-08T15:01:47.110Z,6.40
2017-09-08T15:04:13.488Z,7.53
2017-09-08T15:06:39.579Z,5.33
2017-09-08T15:09:05.600Z,3.63
2017-09-08T15:11:31.824Z,5.07
2017-09-08T15:13:57.873Z,7.40
2017-09-08T15:16:23.860Z,7.83
2017-09-08T15:18:49.907Z,5.07
2017-09-08T15:21:15.931Z,8.47
2017-09-08T15:23:42.646Z,4.47
2017-09-08T15:26:08.676Z,6.20
2017-09-08T15:28:34.944Z,3.90
2017-09-08T15:31:02.264Z,4.83
2017-09-08T15:33:28.397Z,8.23
2017-09-08T15:35:54.586Z,5.50
2017-09-08T15:38:21.525Z,4.40
2017-09-08T15:40:47.566Z,4.13
2017-09-08T15:43:13.600Z,7.73
2017-09-08T15:45:39.887Z,6.77
2017-09-08T15:48:06.241Z,6.67
2017-09-08T15:50:32.221Z,7.00
2017-09-08T15:52:58.208Z,6.77
2017-09-08T15:55:25.292Z,4.87
2017-09-08T15:57:51.926Z,3.70
2017-09-08T16:00:20.384Z,4.43
2017-09-08T16:02:47.196Z,5.73
2017-09-08T16:05:13.345Z,4.80
2017-09-08T16:07:39.402Z,6.33
2017-09-08T16:10:06.262Z,6.70
2017-09-08T16:12:37.472Z,5.63
2017-09-08T16:15:03.504Z,3.60
2017-09-08T16:17:30.053Z,7.17
2017-09-08T16:19:56.171Z,4.20
2017-09-08T16:22:23.829Z,4.43
2017-09-08T16:24:50.553Z,4.37
2017-09-08T16:27:16.905Z,3.90
2017-09-08T16:29:42.894Z,6.30
2017-09-08T16:32:09.105Z,5.57
2017-09-08T16:34:36.093Z,6.17
2017-09-08T16:37:03.402Z,5.23
2017-09-08T16:39:29.524Z,7.60
2017-09-08T16:41:55.584Z,3.37
2017-09-08T16:44:22.579Z,3.90
2017-09-08T16:46:48.589Z,6.87
2017-09-08T16:49:14.676Z,7.33
2017-09-08T16:51:40.703Z,8.57
2017-09-08T16:54:07.027Z,5.20
2017-09-08T16:56:33.056Z,3.90
2017-09-08T16:58:59.271Z,6.50
2017-09-08T17:01:25.344Z,4.97
2017-09-08T17:03:51.388Z,3.90
2017-09-08T17:06:17.481Z,5.07
2017-09-08T17:08:43.431Z,7.47
2017-09-08T17:11:09.393Z,7.87
2017-09-08T17:13:35.350Z,6.53
2017-09-08T17:16:01.395Z,5.90
2017-09-08T17:18:27.489Z,5.73
2017-09-08T17:20:53.622Z,7.80
2017-09-08T17:23:19.667Z,6.53
2017-09-08T17:26:45.871Z,6.50
2017-09-08T17:29:12.075Z,5.87
2017-09-08T17:31:41.279Z,6.00
2017-09-08T17:34:07.385Z,5.37
2017-09-08T17:36:33.979Z,5.90
2017-09-08T17:39:00.129Z,5.33
2017-09-08T17:41:26.972Z,5.43
2017-09-08T17:43:52.976Z,8.20
2017-09-08T17:46:19.762Z,5.07
2017-09-08T17:48:45.774Z,5.33
2017-09-08T17:51:12.541Z,5.43
2017-09-08T17:53:38.534Z,6.10
2017-09-08T17:56:04.497Z,9.83
2017-09-08T17:58:33.862Z,8.10
2017-09-08T18:00:59.826Z,6.97
2017-09-08T18:03:25.744Z,5.03
2017-09-08T18:05:54.269Z,5.47
2017-09-08T18:08:20.325Z,6.40
2017-09-08T18:10:46.492Z,4.90
2017-09-08T18:13:12.473Z,6.90
2017-09-08T18:15:38.442Z,7.70
2017-09-08T18:18:04.452Z,5.80
2017-09-08T18:20:30.493Z,6.43
2017-09-08T18:22:56.495Z,6.83
2017-09-08T18:25:23.745Z,6.00
2017-09-08T18:27:49.847Z,5.77
2017-09-08T18:30:15.802Z,5.13
2017-09-08T18:32:41.819Z,7.57
2017-09-08T18:35:07.791Z,7.90
2017-09-08T18:37:33.747Z,7.17
2017-09-08T18:39:59.732Z,8.50
2017-09-08T18:42:26.524Z,9.97
2017-09-08T18:44:52.754Z,6.47
2017-09-08T18:47:18.789Z,5.20
2017-09-08T18:49:44.945Z,5.47
2017-09-08T18:52:11.287Z,6.97
2017-09-08T18:54:37.356Z,8.03
2017-09-08T18:57:04.269Z,6.53
2017-09-08T18:59:30.237Z,7.63
2017-09-08T19:01:56.404Z,9.03
2017-09-08T19:04:22.472Z,8.90
2017-09-08T19:06:49.484Z,9.13
2017-09-08T19:09:15.505Z,4.80
2017-09-08T19:11:41.504Z,9.77
2017-09-08T19:14:07.603Z,6.60
2017-09-08T19:16:33.591Z,8.17
2017-09-08T19:18:59.607Z,6.53
2017-09-08T19:21:25.732Z,8.77
2017-09-08T19:23:51.722Z,6.90
2017-09-08T19:26:18.381Z,7.33
2017-09-08T19:28:44.415Z,7.87
2017-09-08T19:31:10.418Z,7.50
2017-09-08T19:33:36.477Z,8.90
2017-09-08T19:36:02.509Z,9.77
2017-09-08T19:38:28.507Z,7.93
2017-09-08T19:40:54.537Z,7.07
2017-09-08T19:43:20.540Z,10.10
2017-09-08T19:45:46.505Z,6.17
2017-09-08T19:48:12.460Z,8.03
2017-09-08T19:50:38.519Z,8.03
2017-09-08T19:53:04.806Z,10.43
2017-09-08T19:55:30.880Z,5.27
2017-09-08T19:57:56.868Z,9.50
2017-09-08T20:00:22.870Z,9.37
2017-09-08T20:02:48.987Z,12.50
2017-09-08T20:05:15.561Z,10.73
2017-09-08T20:07:41.512Z,10.87
2017-09-08T20:10:07.446Z,6.93
2017-09-08T20:12:33.417Z,7.00
2017-09-08T20:14:59.737Z,10.47
2017-09-08T20:17:25.707Z,12.40
2017-09-08T20:19:51.823Z,8.80
2017-09-08T20:22:18.884Z,6.17
2017-09-08T20:24:45.444Z,7.57
2017-09-08T20:27:11.532Z,10.50
2017-09-08T20:29:37.469Z,11.83
2017-09-08T20:32:03.535Z,5.83
2017-09-08T20:34:29.488Z,8.50
2017-09-08T20:36:55.435Z,6.93
2017-09-08T20:39:21.427Z,7.00
2017-09-08T20:41:47.459Z,6.37
2017-09-08T20:44:13.395Z,10.80
2017-09-08T20:46:39.352Z,11.07
2017-09-08T20:49:05.272Z,7.50
2017-09-08T20:51:31.161Z,6.27
2017-09-08T20:53:57.086Z,7.53
2017-09-08T20:56:23.020Z,11.07
2017-09-08T20:58:48.962Z,10.00
2017-09-08T21:01:14.869Z,7.40
2017-09-08T21:03:40.819Z,9.07
2017-09-08T21:06:06.798Z,8.40
2017-09-08T21:08:32.853Z,9.00
2017-09-08T21:10:58.812Z,8.10
2017-09-08T21:13:24.774Z,11.60
2017-09-08T21:15:50.728Z,9.10
2017-09-08T21:18:16.627Z,6.93
2017-09-08T21:20:42.611Z,10.40
2017-09-08T21:23:08.519Z,12.47
2017-09-08T21:25:34.453Z,9.23
2017-09-08T21:28:00.445Z,6.77
2017-09-08T21:30:27.260Z,6.80
2017-09-08T21:32:53.219Z,8.63
2017-09-08T21:35:19.159Z,7.50
2017-09-08T21:37:45.087Z,9.43
2017-09-08T21:40:11.032Z,6.90
2017-09-08T21:42:36.970Z,7.73
2017-09-08T21:45:02.891Z,11.07
2017-09-08T21:47:28.901Z,6.53
2017-09-08T21:49:54.875Z,6.90
2017-09-08T21:52:20.815Z,5.10
2017-09-08T21:54:46.812Z,7.23
2017-09-08T21:57:12.763Z,7.10
2017-09-08T21:59:38.699Z,11.73
2017-09-08T22:02:04.623Z,6.83
2017-09-08T22:04:31.551Z,6.40
2017-09-08T22:06:57.543Z,9.00
2017-09-08T22:09:23.474Z,8.70
2017-09-08T22:11:49.453Z,5.93
2017-09-08T22:14:15.396Z,4.50
2017-09-08T22:16:41.337Z,6.33
2017-09-08T22:19:07.309Z,4.43
2017-09-08T22:21:33.252Z,4.67
2017-09-08T22:23:59.248Z,8.53
2017-09-08T22:26:25.191Z,7.13
2017-09-08T22:28:51.979Z,6.33
2017-09-08T22:31:17.942Z,4.73
2017-09-08T22:33:43.906Z,4.47
2017-09-08T22:36:09.841Z,7.43
2017-09-08T22:38:35.769Z,6.30
2017-09-08T22:41:01.784Z,4.40
2017-09-08T22:43:28.486Z,6.30
2017-09-08T22:45:54.395Z,5.13
2017-09-08T22:48:20.373Z,5.27
2017-09-08T22:50:46.323Z,5.80
2017-09-08T22:53:12.369Z,5.10
2017-09-08T22:55:38.375Z,4.70
2017-09-08T22:58:04.352Z,4.83
2017-09-08T23:00:30.314Z,7.77
2017-09-08T23:02:56.412Z,4.80
2017-09-08T23:05:22.408Z,4.50
2017-09-08T23:07:48.427Z,4.73
2017-09-08T23:10:14.364Z,4.13
2017-09-08T23:12:40.408Z,5.10
2017-09-08T23:15:06.369Z,4.77
2017-09-08T23:17:32.294Z,3.93
2017-09-08T23:19:58.231Z,7.00
2017-09-08T23:22:24.220Z,4.70
2017-09-08T23:24:50.154Z,4.03
2017-09-08T23:27:16.181Z,9.13
2017-09-08T23:29:42.175Z,4.43
2017-09-08T23:32:08.097Z,4.03
2017-09-08T23:34:34.071Z,5.20
2017-09-08T23:36:59.992Z,4.10
2017-09-08T23:39:26.005Z,7.37
2017-09-08T23:41:51.962Z,5.67
2017-09-08T23:44:17.921Z,6.00
2017-09-08T23:46:43.871Z,4.10
2017-09-08T23:49:09.844Z,4.63
2017-09-08T23:51:35.865Z,5.20
2017-09-08T23:54:02.149Z,4.27
2017-09-08T23:56:28.099Z,4.17
2017-09-08T23:58:54.052Z,5.70
